This is the latest recevied weather packets stored in our database for station/object KC8PTQ. If no packets are shown the sender has not sent any weather packets the latest 1 day(s).
| Time | Temp. | Humidity | Pressure | Rain* | Wind** | Luminosity | Snow |
|---|---|---|---|---|---|---|---|
| 1777991680 | 18.89° C | 68% | 1008.1 hPa | 0 mm | 0.45 m/s, 274° | 207 W/m² | - |
| 1777991376 | 19.44° C | 66% | 1008 hPa | 0 mm | 1.34 m/s, 167° | 175 W/m² | - |
| 1777991073 | 18.89° C | 67% | 1008.3 hPa | 0 mm | 0.45 m/s, 313° | 200 W/m² | - |
| 1777990771 | 18.89° C | 67% | 1008.3 hPa | 0 mm | 2.68 m/s, 274° | 105 W/m² | - |
| 1777990468 | 18.89° C | 69% | 1008.1 hPa | 0 mm | 0.89 m/s, 217° | 349 W/m² | - |
| 1777990165 | 18.33° C | 70% | 1007.8 hPa | 0 mm | 0.45 m/s, 289° | 293 W/m² | - |
| 1777989862 | 17.78° C | 73% | 1008.2 hPa | 0 mm | 0.45 m/s, 215° | 198 W/m² | - |
| 1777989558 | 17.78° C | 72% | 1008.2 hPa | 0 mm | 1.79 m/s, 143° | 288 W/m² | - |
| 1777989255 | 17.78° C | 74% | 1008.3 hPa | 0 mm | 1.34 m/s, 254° | 312 W/m² | - |
| 1777988951 | 17.78° C | 75% | 1008.3 hPa | 0 mm | 0 m/s | 284 W/m² | - |
| 1777988648 | 17.22° C | 75% | 1008.1 hPa | 0 mm | 0.45 m/s, 194° | 287 W/m² | - |
| 1777988344 | 17.78° C | 77% | 1008.5 hPa | 0 mm | 0.45 m/s, 270° | 344 W/m² | - |
| 1777988042 | 17.22° C | 77% | 1008.4 hPa | 0 mm | 0.45 m/s, 256° | 314 W/m² | - |
| 1777987737 | 16.67° C | 80% | 1008.5 hPa | 0 mm | 2.24 m/s, 225° | 166 W/m² | - |
| 1777987434 | 16.67° C | 80% | 1008.5 hPa | 0 mm | 0.45 m/s, 203° | 234 W/m² | - |
| 1777987131 | 16.11° C | 80% | 1008.2 hPa | 0 mm | 1.79 m/s, 223° | 153 W/m² | - |
| 1777986829 | 16.11° C | 81% | 1008.1 hPa | 0 mm | 0 m/s | 92 W/m² | - |
| 1777986527 | 16.11° C | 80% | 1007.9 hPa | 0 mm | 0.89 m/s, 245° | 71 W/m² | - |
| 1777986224 | 15.56° C | 81% | 1008 hPa | 0 mm | 0.45 m/s, 274° | 173 W/m² | - |
| 1777985921 | 15.56° C | 82% | 1008.2 hPa | 0 mm | 0 m/s | 84 W/m² | - |
| 1777985619 | 15.56° C | 83% | 1008.1 hPa | 0 mm | 0.89 m/s, 210° | 68 W/m² | - |
| 1777985315 | 15.56° C | 84% | 1008.1 hPa | 0 mm | 0 m/s | 72 W/m² | - |
| 1777985012 | 15° C | 83% | 1008.2 hPa | 0 mm | 0.89 m/s, 241° | 70 W/m² | - |
| 1777984708 | 15° C | 83% | 1008 hPa | 0 mm | 0.45 m/s, 274° | 57 W/m² | - |
| 1777984405 | 15° C | 83% | 1007.8 hPa | 0 mm | 0 m/s | 47 W/m² | - |
* Rain latest hour (hover to see other rain measurements)
** Current wind speed in m/s (hover to see current wind gust speed)